Time;durP1;ratioP1;P1;durP2;ratioP2;P2;SDS_P1;SDS_P2;PMS_P1;PMS_P2;Temp;Humidity;BMP_temperature;BMP_pressure;BME280_temperature;BME280_humidity;BME280_pressure;Samples;Min_cycle;Max_cycle;Signal;HPM_P1;HPM_P2
2021/10/10 00:01:26;;;;;;;14.75;4.45;;;30.30;83.80;;;;;;5083826;28;20028;-37
2021/10/10 00:03:53;;;;;;;18.27;4.45;;;30.30;83.80;;;;;;5083737;28;20028;-40
2021/10/10 00:06:20;;;;;;;17.40;4.35;;;30.30;83.50;;;;;;5083705;28;20028;-40
2021/10/10 00:08:46;;;;;;;11.23;4.05;;;30.30;83.30;;;;;;5083567;28;20025;-37
2021/10/10 00:11:13;;;;;;;16.77;4.30;;;30.30;83.20;;;;;;5083527;28;20017;-37
2021/10/10 00:13:40;;;;;;;31.10;4.38;;;30.30;83.10;;;;;;5083099;28;20062;-38
2021/10/10 00:16:12;;;;;;;23.92;4.18;;;30.20;83.00;;;;;;5083453;28;20023;-38
2021/10/10 00:18:44;;;;;;;17.85;3.65;;;30.20;83.10;;;;;;5082432;28;20029;-40
2021/10/10 00:21:12;;;;;;;16.40;3.30;;;30.20;83.10;;;;;;5081977;28;20052;-38
2021/10/10 00:23:46;;;;;;;19.63;3.53;;;30.10;83.10;;;;;;5082108;28;20036;-37
2021/10/10 00:26:16;;;;;;;12.95;3.90;;;30.10;83.00;;;;;;5083071;28;20024;-36
2021/10/10 00:28:43;;;;;;;12.27;4.03;;;30.10;83.00;;;;;;5082155;28;20317;-39
2021/10/10 00:31:10;;;;;;;19.50;4.88;;;30.10;83.10;;;;;;5082184;28;20024;-42
2021/10/10 00:33:37;;;;;;;12.40;4.47;;;30.10;83.00;;;;;;5083259;28;20197;-37
2021/10/10 00:36:07;;;;;;;14.10;4.00;;;30.10;82.90;;;;;;5083439;28;20086;-37
2021/10/10 00:38:38;;;;;;;14.35;4.13;;;30.10;82.80;;;;;;5065221;28;20090;-42
2021/10/10 00:41:06;;;;;;;16.33;4.55;;;30.00;82.60;;;;;;5083034;28;20328;-37
2021/10/10 00:43:39;;;;;;;10.90;3.90;;;30.00;82.50;;;;;;5081871;28;20032;-45
2021/10/10 00:46:09;;;;;;;9.65;3.65;;;30.00;82.40;;;;;;5083098;28;20027;-37
2021/10/10 00:48:40;;;;;;;7.72;2.95;;;30.00;82.30;;;;;;5083917;28;20055;-38
2021/10/10 00:51:10;;;;;;;7.80;2.95;;;30.00;82.20;;;;;;5086777;28;20016;-39
2021/10/10 00:53:39;;;;;;;7.40;2.85;;;30.00;82.20;;;;;;5086701;28;20074;-37
2021/10/10 00:56:06;;;;;;;11.70;2.80;;;30.00;82.30;;;;;;5082606;28;20117;-38
2021/10/10 00:58:37;;;;;;;12.02;3.28;;;29.90;82.30;;;;;;5086477;28;20033;-36
2021/10/10 01:01:06;;;;;;;11.15;3.40;;;29.90;82.30;;;;;;5086347;28;20193;-42
2021/10/10 01:03:36;;;;;;;12.23;3.10;;;29.90;82.30;;;;;;5086402;28;20036;-52
2021/10/10 01:06:06;;;;;;;8.35;3.13;;;29.90;82.40;;;;;;5086406;28;20082;-43
2021/10/10 01:08:32;;;;;;;7.05;3.33;;;29.90;82.40;;;;;;5086148;28;20024;-42
2021/10/10 01:11:21;;;;;;;11.88;3.97;;;29.90;82.20;;;;;;5085171;28;20024;-44
2021/10/10 01:13:52;;;;;;;14.45;4.47;;;29.90;82.10;;;;;;5007893;28;20037;-37
2021/10/10 01:16:23;;;;;;;19.33;4.82;;;29.90;82.00;;;;;;5024765;28;20037;-37
2021/10/10 01:19:00;;;;;;;10.73;3.78;;;29.80;81.90;;;;;;5024456;28;20068;-45
2021/10/10 01:21:26;;;;;;;8.27;3.35;;;29.80;81.90;;;;;;5009468;28;20030;-38
2021/10/10 01:23:53;;;;;;;8.43;3.17;;;29.80;81.80;;;;;;5008234;28;20050;-40
2021/10/10 01:26:24;;;;;;;13.60;3.42;;;29.80;81.70;;;;;;5024165;28;20048;-39
2021/10/10 01:28:53;;;;;;;6.78;2.78;;;29.80;81.80;;;;;;5007904;28;20101;-40
2021/10/10 01:31:19;;;;;;;8.48;3.15;;;29.80;81.70;;;;;;5024474;28;20022;-42
2021/10/10 01:33:48;;;;;;;9.00;3.92;;;29.80;81.80;;;;;;5007853;28;20045;-39
2021/10/10 01:36:15;;;;;;;9.73;3.40;;;29.80;81.70;;;;;;5024154;28;20045;-46
2021/10/10 01:38:46;;;;;;;13.07;3.40;;;29.80;81.50;;;;;;5024090;28;20284;-45
2021/10/10 01:41:13;;;;;;;11.68;3.85;;;29.80;81.60;;;;;;5007598;28;20202;-46
2021/10/10 01:43:44;;;;;;;13.70;4.18;;;29.80;81.60;;;;;;5012140;28;20042;-37
2021/10/10 01:46:19;;;;;;;19.00;4.30;;;29.70;81.40;;;;;;5085616;28;20027;-39
2021/10/10 01:49:11;;;;;;;11.13;4.55;;;29.70;81.50;;;;;;5085591;28;20047;-40
2021/10/10 01:51:41;;;;;;;13.68;4.10;;;29.70;81.50;;;;;;5043165;28;20033;-40
2021/10/10 01:54:14;;;;;;;9.20;3.72;;;29.70;81.50;;;;;;5043594;28;20079;-38
2021/10/10 01:57:00;;;;;;;28.95;4.32;;;29.70;81.50;;;;;;5043505;28;20104;-39
2021/10/10 01:59:29;;;;;;;15.57;4.32;;;29.70;81.50;;;;;;5043315;28;20029;-41
2021/10/10 02:01:59;;;;;;;12.70;3.33;;;29.70;81.60;;;;;;5043491;28;20049;-35
2021/10/10 02:04:27;;;;;;;12.60;3.35;;;29.60;81.60;;;;;;5043179;28;20049;-35
2021/10/10 02:06:54;;;;;;;14.10;3.38;;;29.60;81.80;;;;;;5026905;28;20337;-35
2021/10/10 02:09:23;;;;;;;49.28;5.32;;;29.60;81.80;;;;;;5043216;28;20040;-40
2021/10/10 02:11:52;;;;;;;69.30;6.22;;;29.60;81.70;;;;;;5043199;28;20181;-37
2021/10/10 02:14:27;;;;;;;53.13;5.57;;;29.60;81.90;;;;;;5043094;28;20025;-37
2021/10/10 02:16:57;;;;;;;53.88;6.57;;;29.60;82.10;;;;;;5043064;28;20337;-36
2021/10/10 02:19:24;;;;;;;56.63;6.00;;;29.60;82.40;;;;;;5043147;28;20073;-43
2021/10/10 02:21:56;;;;;;;48.10;6.35;;;29.60;82.60;;;;;;5052204;28;20044;-42
2021/10/10 02:24:27;;;;;;;61.75;6.25;;;29.60;82.80;;;;;;5084759;28;20305;-37
2021/10/10 02:26:57;;;;;;;44.75;6.57;;;29.60;82.90;;;;;;5083777;28;20202;-43
2021/10/10 02:29:26;;;;;;;39.58;5.57;;;29.50;82.80;;;;;;5083758;28;20313;-36
2021/10/10 02:31:55;;;;;;;40.08;6.25;;;29.50;82.80;;;;;;5083585;28;20070;-38
2021/10/10 02:34:22;;;;;;;50.45;6.97;;;29.50;82.70;;;;;;5083433;28;20028;-37
2021/10/10 02:36:51;;;;;;;54.67;9.15;;;29.50;82.80;;;;;;5083285;28;20024;-42
2021/10/10 02:39:22;;;;;;;47.58;10.63;;;29.50;83.00;;;;;;5084771;28;20036;-46
2021/10/10 02:41:48;;;;;;;64.78;11.90;;;29.50;83.10;;;;;;5084473;28;20027;-41
2021/10/10 02:44:17;;;;;;;64.57;10.85;;;29.40;83.10;;;;;;5083141;28;20208;-40
2021/10/10 02:46:49;;;;;;;43.15;9.05;;;29.40;83.30;;;;;;5084319;28;20425;-41
2021/10/10 02:49:20;;;;;;;40.60;7.75;;;29.40;83.40;;;;;;5084497;28;20028;-45
2021/10/10 02:51:53;;;;;;;29.67;6.45;;;29.40;83.40;;;;;;5084252;28;20320;-46
2021/10/10 02:54:25;;;;;;;24.38;5.63;;;29.40;83.50;;;;;;5084530;28;20020;-40
2021/10/10 02:56:59;;;;;;;26.20;7.63;;;29.40;83.70;;;;;;5082938;28;20037;-44
2021/10/10 02:59:25;;;;;;;31.17;9.85;;;29.40;83.90;;;;;;5083341;28;20328;-37
2021/10/10 03:01:52;;;;;;;28.48;9.30;;;29.30;84.00;;;;;;5084248;28;20040;-38
2021/10/10 03:04:19;;;;;;;30.17;9.25;;;29.40;84.10;;;;;;5084138;28;20028;-47
2021/10/10 03:06:46;;;;;;;29.00;10.25;;;29.30;84.30;;;;;;5083241;28;20070;-42
2021/10/10 03:09:13;;;;;;;27.48;13.48;;;29.40;84.50;;;;;;5084429;28;20031;-47
2021/10/10 03:11:39;;;;;;;36.75;15.77;;;29.40;84.60;;;;;;5082323;28;20220;-39
2021/10/10 03:14:09;;;;;;;38.60;17.90;;;29.30;84.70;;;;;;5084256;28;20036;-37
2021/10/10 03:16:35;;;;;;;48.33;26.92;;;29.30;84.80;;;;;;5083943;28;20024;-42
2021/10/10 03:19:02;;;;;;;53.78;27.92;;;29.30;84.90;;;;;;5083883;28;20028;-39
2021/10/10 03:21:29;;;;;;;50.38;23.83;;;29.30;85.00;;;;;;5083872;28;20023;-42
2021/10/10 03:23:55;;;;;;;43.80;20.33;;;29.30;85.10;;;;;;5084026;28;20024;-36
2021/10/10 03:26:22;;;;;;;28.52;15.52;;;29.30;85.10;;;;;;5083450;28;20313;-41
2021/10/10 03:28:49;;;;;;;28.50;13.10;;;29.30;85.10;;;;;;5083762;28;20032;-41
2021/10/10 03:31:16;;;;;;;28.40;13.45;;;29.30;85.20;;;;;;5083628;28;20058;-36
2021/10/10 03:33:42;;;;;;;30.77;13.40;;;29.30;85.40;;;;;;5083594;28;20130;-45
2021/10/10 03:36:10;;;;;;;23.58;12.75;;;29.30;85.40;;;;;;5083664;28;20016;-36
2021/10/10 03:38:37;;;;;;;23.88;12.05;;;29.20;85.40;;;;;;5083817;28;20024;-37
2021/10/10 03:41:04;;;;;;;23.40;11.13;;;29.20;85.50;;;;;;5083550;28;20069;-44
2021/10/10 03:43:30;;;;;;;27.58;11.32;;;29.20;85.50;;;;;;5083577;28;20099;-40
2021/10/10 03:45:57;;;;;;;28.13;10.52;;;29.20;85.60;;;;;;5083443;28;20317;-41
2021/10/10 03:48:24;;;;;;;24.48;11.88;;;29.20;85.70;;;;;;5083363;28;20024;-42
2021/10/10 03:50:51;;;;;;;25.02;13.18;;;29.20;85.60;;;;;;5083567;28;20020;-41
2021/10/10 03:53:18;;;;;;;32.25;16.17;;;29.20;85.60;;;;;;5083538;28;20130;-38
2021/10/10 03:55:46;;;;;;;31.33;18.63;;;29.20;85.70;;;;;;5083252;28;20047;-43
2021/10/10 03:58:15;;;;;;;46.60;29.02;;;29.20;85.90;;;;;;5083404;28;20020;-39
2021/10/10 04:00:42;;;;;;;71.53;43.38;;;29.20;86.00;;;;;;5083403;28;20039;-39
2021/10/10 04:03:10;;;;;;;67.40;42.95;;;29.20;86.10;;;;;;5083153;28;20257;-43
2021/10/10 04:05:42;;;;;;;63.10;38.83;;;29.10;86.10;;;;;;5083367;28;20376;-36
2021/10/10 04:08:09;;;;;;;51.20;31.88;;;29.10;86.20;;;;;;5083261;28;20021;-37
2021/10/10 04:10:35;;;;;;;45.92;25.83;;;29.10;86.10;;;;;;5083494;28;20024;-40
2021/10/10 04:13:02;;;;;;;35.22;19.77;;;29.10;86.10;;;;;;5082138;28;20082;-38
2021/10/10 04:15:29;;;;;;;29.25;16.00;;;29.10;85.90;;;;;;5083719;28;20028;-42
2021/10/10 04:17:56;;;;;;;26.38;14.30;;;29.10;85.80;;;;;;5083250;28;20339;-42
2021/10/10 04:20:23;;;;;;;22.38;11.95;;;29.10;85.60;;;;;;5083724;28;20024;-37
2021/10/10 04:22:49;;;;;;;19.58;9.95;;;29.10;85.60;;;;;;5083255;28;20376;-43
2021/10/10 04:25:16;;;;;;;17.83;8.82;;;29.10;85.60;;;;;;5086763;28;20052;-36
2021/10/10 04:27:43;;;;;;;13.73;7.90;;;29.10;85.50;;;;;;5087044;28;20025;-40
2021/10/10 04:30:13;;;;;;;16.27;7.47;;;29.10;85.60;;;;;;5087498;28;20302;-38
2021/10/10 04:32:41;;;;;;;17.23;7.57;;;29.10;85.60;;;;;;5086752;28;20021;-37
2021/10/10 04:35:09;;;;;;;15.85;5.93;;;29.10;85.60;;;;;;5087351;28;20308;-36
2021/10/10 04:37:35;;;;;;;11.35;5.50;;;29.10;85.60;;;;;;5087249;28;20024;-38
2021/10/10 04:40:04;;;;;;;9.43;5.43;;;29.10;85.50;;;;;;5087055;28;20024;-36
2021/10/10 04:42:33;;;;;;;11.00;5.35;;;29.10;85.40;;;;;;5086803;28;20071;-46
2021/10/10 04:44:59;;;;;;;67.70;10.38;;;29.10;85.40;;;;;;5086632;28;20024;-42
2021/10/10 04:47:26;;;;;;;117.57;13.77;;;29.10;85.50;;;;;;5086623;28;20066;-43
2021/10/10 04:49:52;;;;;;;123.55;14.23;;;29.00;85.50;;;;;;5086994;28;20027;-36
2021/10/10 04:52:19;;;;;;;103.85;12.43;;;29.10;85.60;;;;;;5086973;28;20017;-36
2021/10/10 04:54:47;;;;;;;104.40;12.20;;;29.10;85.60;;;;;;5086622;28;20303;-38
2021/10/10 04:57:14;;;;;;;74.65;10.32;;;29.10;85.40;;;;;;5086590;28;20028;-40
2021/10/10 04:59:49;;;;;;;68.07;9.23;;;29.10;85.20;;;;;;5086724;28;20308;-39
2021/10/10 05:02:19;;;;;;;74.47;8.98;;;29.00;85.00;;;;;;5086276;28;20091;-42
2021/10/10 05:04:47;;;;;;;90.93;10.00;;;29.00;85.00;;;;;;5086706;28;20208;-37
2021/10/10 05:07:14;;;;;;;94.80;11.30;;;29.00;85.10;;;;;;5086281;28;20028;-43
2021/10/10 05:09:40;;;;;;;94.63;11.25;;;29.00;85.10;;;;;;5086558;28;20087;-37
2021/10/10 05:12:07;;;;;;;92.03;10.18;;;29.00;85.10;;;;;;5086158;28;20368;-40
2021/10/10 05:14:34;;;;;;;92.15;9.15;;;29.00;85.20;;;;;;5086545;28;20020;-36
2021/10/10 05:17:01;;;;;;;77.68;9.85;;;29.00;85.30;;;;;;5086016;28;20021;-39
2021/10/10 05:19:27;;;;;;;80.75;8.60;;;29.00;85.40;;;;;;5086329;28;20028;-46
2021/10/10 05:21:54;;;;;;;75.57;8.95;;;29.00;85.40;;;;;;5086046;28;20098;-39
2021/10/10 05:24:20;;;;;;;75.53;6.40;;;29.00;85.40;;;;;;5085921;28;20020;-40
2021/10/10 05:26:48;;;;;;;79.35;7.75;;;29.00;85.30;;;;;;5085925;28;20254;-41
2021/10/10 05:29:15;;;;;;;70.00;7.18;;;29.00;85.10;;;;;;5086043;28;20024;-39
2021/10/10 05:31:41;;;;;;;47.47;5.75;;;29.00;84.90;;;;;;5085794;28;20024;-41
2021/10/10 05:34:08;;;;;;;57.03;5.15;;;29.00;84.50;;;;;;5085666;28;20140;-42
2021/10/10 05:36:34;;;;;;;40.22;4.07;;;29.00;84.00;;;;;;5085750;28;20028;-44
2021/10/10 05:39:01;;;;;;;28.83;3.53;;;28.90;83.80;;;;;;5085780;28;20197;-48
2021/10/10 05:41:27;;;;;;;18.83;3.10;;;28.90;83.70;;;;;;5085748;28;20033;-40
2021/10/10 05:43:54;;;;;;;30.90;3.92;;;28.90;83.50;;;;;;5085760;28;20020;-40
2021/10/10 05:46:21;;;;;;;32.67;3.65;;;28.90;83.40;;;;;;5085446;28;20051;-42
2021/10/10 05:48:47;;;;;;;47.95;4.20;;;28.90;83.40;;;;;;5085627;28;20020;-47
2021/10/10 05:51:14;;;;;;;24.40;3.28;;;28.80;83.60;;;;;;5085576;28;20017;-41
2021/10/10 05:53:40;;;;;;;30.27;3.85;;;28.80;84.00;;;;;;5085374;28;20178;-43
2021/10/10 05:56:07;;;;;;;16.50;2.42;;;28.80;84.60;;;;;;5085449;28;20067;-48
2021/10/10 05:58:40;;;;;;;34.15;4.13;;;28.80;85.00;;;;;;5085585;28;20051;-42
2021/10/10 06:01:07;;;;;;;23.58;3.60;;;28.80;85.30;;;;;;5085204;28;20047;-47
2021/10/10 06:03:33;;;;;;;18.70;2.17;;;28.80;86.20;;;;;;5085285;28;20032;-44
2021/10/10 06:06:00;;;;;;;17.10;2.80;;;28.80;86.00;;;;;;5085203;28;20025;-53
2021/10/10 06:08:26;;;;;;;16.08;2.42;;;28.70;86.10;;;;;;5085022;28;20084;-44
2021/10/10 06:10:53;;;;;;;11.15;2.20;;;28.70;86.50;;;;;;5085117;28;20072;-47
2021/10/10 06:13:20;;;;;;;18.40;3.28;;;28.70;86.60;;;;;;5085060;28;20016;-48
2021/10/10 06:15:48;;;;;;;67.53;5.60;;;28.70;86.80;;;;;;5084803;28;20066;-47
2021/10/10 06:18:15;;;;;;;49.38;5.97;;;28.70;87.20;;;;;;5084818;28;20074;-47
2021/10/10 06:20:42;;;;;;;38.97;4.75;;;28.70;87.40;;;;;;5084865;28;20023;-46
2021/10/10 06:23:08;;;;;;;28.23;4.13;;;28.70;87.50;;;;;;5084566;28;20032;-46
2021/10/10 06:25:35;;;;;;;35.40;3.28;;;28.70;87.70;;;;;;5084655;28;20074;-46
2021/10/10 06:28:01;;;;;;;21.15;3.22;;;28.60;87.90;;;;;;5084715;28;20012;-46
2021/10/10 06:30:28;;;;;;;13.30;2.70;;;28.60;88.00;;;;;;5084495;28;20035;-49
2021/10/10 06:32:55;;;;;;;15.48;2.22;;;28.60;88.00;;;;;;5084949;28;20024;-44
2021/10/10 06:35:21;;;;;;;13.10;2.47;;;28.60;88.00;;;;;;5085156;28;20032;-50
2021/10/10 06:37:48;;;;;;;9.77;2.42;;;28.60;88.10;;;;;;5084629;28;20016;-44
2021/10/10 06:40:14;;;;;;;14.88;2.00;;;28.60;88.30;;;;;;5084941;28;20039;-50
2021/10/10 06:42:42;;;;;;;11.55;2.55;;;28.60;88.20;;;;;;5084552;28;20020;-46
2021/10/10 06:45:09;;;;;;;8.55;1.67;;;28.50;88.20;;;;;;5084725;28;20153;-42
2021/10/10 06:47:36;;;;;;;11.52;2.40;;;28.50;88.40;;;;;;5083905;28;20020;-45
2021/10/10 06:50:04;;;;;;;18.83;7.47;;;28.50;88.50;;;;;;5084699;28;20088;-48
2021/10/10 06:52:31;;;;;;;33.40;14.45;;;28.50;88.70;;;;;;5084364;28;20119;-46
2021/10/10 06:54:57;;;;;;;21.73;8.90;;;28.50;88.80;;;;;;5084377;28;20028;-43
2021/10/10 06:57:25;;;;;;;11.20;5.05;;;28.50;88.80;;;;;;5084279;28;20058;-46
2021/10/10 06:59:53;;;;;;;10.07;4.07;;;28.50;88.90;;;;;;5084606;28;20323;-49
2021/10/10 07:02:21;;;;;;;12.30;4.05;;;28.40;88.80;;;;;;5084447;28;20029;-46
2021/10/10 07:04:47;;;;;;;6.93;3.17;;;28.50;88.90;;;;;;5084398;28;20047;-49
2021/10/10 07:07:14;;;;;;;6.85;3.03;;;28.40;88.80;;;;;;5084149;28;20016;-51
2021/10/10 07:09:40;;;;;;;8.70;3.42;;;28.40;88.70;;;;;;5084420;28;20032;-46
2021/10/10 07:12:07;;;;;;;8.93;3.13;;;28.50;89.00;;;;;;5084092;28;20021;-52
2021/10/10 07:14:34;;;;;;;7.55;2.80;;;28.40;89.00;;;;;;5083987;28;20118;-49
2021/10/10 07:17:00;;;;;;;4.57;2.80;;;28.40;89.10;;;;;;5084116;28;20021;-45
2021/10/10 07:19:35;;;;;;;3.85;2.25;;;28.40;88.90;;;;;;5084184;28;20236;-44
2021/10/10 07:22:13;;;;;;;6.00;2.28;;;28.40;88.90;;;;;;5083840;28;20264;-44
2021/10/10 07:27:24;;;;;;;7.25;2.00;;;28.40;88.70;;;;;;5083761;28;20015;-45
2021/10/10 07:29:51;;;;;;;2.97;1.63;;;28.40;88.50;;;;;;5084208;28;20024;-44
2021/10/10 07:32:18;;;;;;;3.58;1.63;;;28.40;88.40;;;;;;5083773;28;20020;-44
2021/10/10 07:34:44;;;;;;;7.82;4.88;;;28.30;88.40;;;;;;5083934;28;20028;-47
2021/10/10 07:37:11;;;;;;;18.17;9.75;;;28.40;88.40;;;;;;5083752;28;20027;-49
2021/10/10 07:39:37;;;;;;;19.40;10.82;;;28.30;88.30;;;;;;5084244;28;20055;-44
2021/10/10 07:42:04;;;;;;;17.27;8.23;;;28.30;88.40;;;;;;5083635;28;20271;-43
2021/10/10 07:44:30;;;;;;;11.43;5.32;;;28.30;88.50;;;;;;5083993;28;20069;-44
2021/10/10 07:47:08;;;;;;;12.20;6.00;;;28.30;88.50;;;;;;5083828;28;20024;-43
2021/10/10 07:49:35;;;;;;;18.25;8.52;;;28.30;88.60;;;;;;5083747;28;20032;-45
2021/10/10 07:52:02;;;;;;;17.60;7.47;;;28.30;88.80;;;;;;5083728;28;20009;-45
2021/10/10 07:54:30;;;;;;;13.38;7.20;;;28.30;88.80;;;;;;5083942;28;20360;-38
2021/10/10 07:56:56;;;;;;;15.70;8.55;;;28.30;88.90;;;;;;5083369;28;20037;-37
2021/10/10 07:59:23;;;;;;;15.52;8.52;;;28.30;89.20;;;;;;5087321;28;20020;-39
2021/10/10 08:01:49;;;;;;;16.00;8.43;;;28.30;89.20;;;;;;5087795;28;20028;-44
2021/10/10 08:04:16;;;;;;;13.52;6.38;;;28.30;89.20;;;;;;5087646;28;20036;-36
2021/10/10 08:06:43;;;;;;;14.80;6.00;;;28.30;89.40;;;;;;5087478;28;20059;-38
2021/10/10 08:09:09;;;;;;;10.50;5.35;;;28.30;89.50;;;;;;5087565;28;20027;-35
2021/10/10 08:11:36;;;;;;;13.93;6.18;;;28.30;89.60;;;;;;5087240;28;20075;-35
2021/10/10 08:14:02;;;;;;;11.57;5.90;;;28.30;89.60;;;;;;5087609;28;20231;-39
2021/10/10 08:16:29;;;;;;;13.05;6.90;;;28.30;89.50;;;;;;5087345;28;20265;-37
2021/10/10 08:18:55;;;;;;;10.63;5.07;;;28.30;89.40;;;;;;5087435;28;20059;-37
2021/10/10 08:21:22;;;;;;;10.95;4.93;;;28.30;89.40;;;;;;5087258;28;20017;-39
2021/10/10 08:23:48;;;;;;;8.50;4.95;;;28.30;89.40;;;;;;5087337;28;20032;-35
2021/10/10 08:26:15;;;;;;;14.02;6.75;;;28.20;89.30;;;;;;5086982;28;20027;-39
2021/10/10 08:28:41;;;;;;;19.40;8.02;;;28.30;89.50;;;;;;5087179;28;20073;-36
2021/10/10 08:31:08;;;;;;;12.57;6.00;;;28.30;89.50;;;;;;5087068;28;20017;-42
2021/10/10 08:33:35;;;;;;;8.70;4.75;;;28.20;89.50;;;;;;5087190;28;20088;-37
2021/10/10 08:36:02;;;;;;;11.73;3.85;;;28.20;89.60;;;;;;5086927;28;20024;-45
2021/10/10 08:38:29;;;;;;;6.22;2.55;;;28.20;89.40;;;;;;5086954;28;20029;-35
2021/10/10 08:40:56;;;;;;;4.25;2.05;;;28.20;89.10;;;;;;5086880;28;20024;-37
2021/10/10 08:43:24;;;;;;;5.93;2.00;;;28.20;88.90;;;;;;5086761;28;20085;-36
2021/10/10 08:45:52;;;;;;;4.22;1.73;;;28.10;88.50;;;;;;5086715;28;20080;-38
2021/10/10 08:48:19;;;;;;;4.07;1.40;;;28.20;87.90;;;;;;5086683;28;20021;-35
2021/10/10 08:50:48;;;;;;;1.65;1.17;;;28.20;87.60;;;;;;5086693;28;20033;-37
2021/10/10 08:53:20;;;;;;;4.28;1.05;;;28.10;87.00;;;;;;5086569;28;20087;-39
2021/10/10 08:55:46;;;;;;;1.73;0.90;;;28.10;86.80;;;;;;5086409;28;20241;-36
2021/10/10 08:58:17;;;;;;;4.13;0.63;;;28.10;86.60;;;;;;5086496;28;20028;-40
2021/10/10 09:01:02;;;;;;;3.00;0.68;;;28.10;86.70;;;;;;5086578;28;20023;-36
2021/10/10 09:03:28;;;;;;;0.68;0.47;;;28.10;86.70;;;;;;5086494;28;20063;-36
2021/10/10 09:05:57;;;;;;;1.02;0.38;;;28.10;86.60;;;;;;5086457;28;20036;-35
2021/10/10 09:08:23;;;;;;;1.20;0.40;;;28.00;86.60;;;;;;5086317;28;20204;-40
2021/10/10 09:10:58;;;;;;;2.78;0.52;;;28.00;86.60;;;;;;5085566;28;20043;-35
2021/10/10 09:13:32;;;;;;;0.68;0.47;;;28.00;86.70;;;;;;5086282;28;20012;-35
2021/10/10 09:15:59;;;;;;;0.82;0.47;;;28.00;86.80;;;;;;5086682;28;20030;-39
2021/10/10 09:18:38;;;;;;;2.55;0.47;;;28.00;87.00;;;;;;5086209;28;20321;-35
2021/10/10 09:21:27;;;;;;;1.42;0.60;;;28.00;87.00;;;;;;5086060;28;20029;-40
2021/10/10 09:23:56;;;;;;;2.38;0.60;;;28.00;87.10;;;;;;5086285;28;20104;-38
2021/10/10 09:26:23;;;;;;;1.83;0.63;;;27.90;87.30;;;;;;5086083;28;20208;-40
2021/10/10 09:28:51;;;;;;;2.00;0.65;;;27.90;87.50;;;;;;5086231;28;20205;-41
2021/10/10 09:31:17;;;;;;;2.17;0.60;;;27.90;87.70;;;;;;5085987;28;20055;-36
2021/10/10 09:33:52;;;;;;;4.57;0.90;;;27.90;87.80;;;;;;5085941;28;20293;-35
2021/10/10 09:36:27;;;;;;;2.05;0.60;;;27.90;87.80;;;;;;5085823;28;20032;-35
2021/10/10 09:41:41;;;;;;;2.65;0.70;;;27.80;88.00;;;;;;5085819;28;20016;-35
2021/10/10 09:44:17;;;;;;;3.25;0.70;;;27.80;88.10;;;;;;5085526;28;20035;-44
2021/10/10 09:46:46;;;;;;;0.98;0.50;;;27.80;88.20;;;;;;5085917;28;20423;-37
2021/10/10 09:49:33;;;;;;;3.35;0.75;;;27.80;88.40;;;;;;5085807;28;20025;-39
2021/10/10 09:52:08;;;;;;;2.80;0.80;;;27.80;88.70;;;;;;5085616;28;20247;-39
2021/10/10 09:54:53;;;;;;;6.03;0.77;;;27.80;88.90;;;;;;5085868;28;20017;-36
2021/10/10 09:57:22;;;;;;;6.18;1.00;;;27.80;89.10;;;;;;5085435;28;20040;-41
2021/10/10 09:59:49;;;;;;;1.50;1.02;;;27.80;89.20;;;;;;5085744;28;20025;-48
2021/10/10 10:02:17;;;;;;;1.63;0.85;;;27.80;89.30;;;;;;5085131;28;20033;-38
2021/10/10 10:04:50;;;;;;;3.17;1.23;;;27.80;89.40;;;;;;5085560;28;20032;-37
2021/10/10 10:07:21;;;;;;;2.45;0.95;;;27.80;89.50;;;;;;5085523;28;20032;-39
2021/10/10 10:09:52;;;;;;;1.93;0.97;;;27.80;89.70;;;;;;5085554;28;20048;-40
2021/10/10 10:12:26;;;;;;;6.35;1.08;;;27.80;89.80;;;;;;5085077;28;20032;-46
2021/10/10 10:14:56;;;;;;;3.38;1.00;;;27.80;89.80;;;;;;5085321;28;20171;-45
2021/10/10 10:17:27;;;;;;;3.75;1.23;;;27.80;89.90;;;;;;5085023;28;20312;-45
2021/10/10 10:20:01;;;;;;;2.85;1.20;;;27.80;89.90;;;;;;5085285;28;20032;-43
2021/10/10 10:22:34;;;;;;;4.30;1.08;;;27.80;89.90;;;;;;5084986;28;20035;-40
2021/10/10 10:25:02;;;;;;;2.20;1.00;;;27.80;89.90;;;;;;5085219;28;20320;-41
2021/10/10 10:27:29;;;;;;;5.82;1.40;;;27.80;90.00;;;;;;5085040;28;20115;-44
2021/10/10 10:29:59;;;;;;;3.28;1.20;;;27.70;89.90;;;;;;5084754;28;20020;-37
2021/10/10 10:32:30;;;;;;;2.20;1.10;;;27.70;90.00;;;;;;5084727;28;20020;-44
2021/10/10 10:35:18;;;;;;;4.53;1.52;;;27.70;90.00;;;;;;5085094;28;20052;-42
2021/10/10 10:37:45;;;;;;;4.22;1.83;;;27.70;89.90;;;;;;5084646;28;20046;-35
2021/10/10 10:40:26;;;;;;;3.22;1.88;;;27.70;90.00;;;;;;5085085;28;20021;-39
2021/10/10 10:42:54;;;;;;;3.83;1.90;;;27.70;90.00;;;;;;5084514;28;20085;-42
2021/10/10 10:45:25;;;;;;;6.60;1.60;;;27.70;90.00;;;;;;5084818;28;20021;-43
2021/10/10 10:47:54;;;;;;;7.05;1.90;;;27.70;90.00;;;;;;5084789;28;20058;-42
2021/10/10 10:50:25;;;;;;;5.40;2.00;;;27.70;90.10;;;;;;5084903;28;20084;-38
2021/10/10 10:53:13;;;;;;;3.90;1.70;;;27.70;90.10;;;;;;5084508;28;20085;-40
2021/10/10 10:55:41;;;;;;;3.50;1.77;;;27.70;90.10;;;;;;5084184;28;20052;-45
2021/10/10 10:58:10;;;;;;;3.58;1.80;;;27.70;90.10;;;;;;5084301;28;20123;-43
2021/10/10 11:00:43;;;;;;;3.58;1.92;;;27.70;90.00;;;;;;5084392;28;20020;-43
2021/10/10 11:03:25;;;;;;;4.25;1.45;;;27.70;90.00;;;;;;5084119;28;20020;-40
2021/10/10 11:06:00;;;;;;;7.43;1.80;;;27.70;90.00;;;;;;5084317;28;20027;-38
2021/10/10 11:08:30;;;;;;;3.15;1.45;;;27.70;90.00;;;;;;5084015;28;20201;-40
2021/10/10 11:11:08;;;;;;;4.25;1.77;;;27.70;90.00;;;;;;5084362;28;20016;-37
2021/10/10 11:13:35;;;;;;;5.00;1.85;;;27.70;89.90;;;;;;5082788;28;20288;-41
2021/10/10 11:16:12;;;;;;;4.93;2.17;;;27.70;89.80;;;;;;5084233;28;20036;-41
2021/10/10 11:18:47;;;;;;;5.75;2.53;;;27.70;89.60;;;;;;5084042;28;20099;-35
2021/10/10 11:21:17;;;;;;;2.53;1.80;;;27.70;89.50;;;;;;5083862;28;20058;-37
2021/10/10 11:23:47;;;;;;;6.20;1.73;;;27.80;89.40;;;;;;5084026;28;20072;-46
2021/10/10 11:26:14;;;;;;;4.50;1.60;;;27.80;89.40;;;;;;5083624;28;20376;-39
2021/10/10 11:28:46;;;;;;;7.18;1.83;;;27.80;89.20;;;;;;5083934;28;20097;-37
2021/10/10 11:31:25;;;;;;;3.10;1.70;;;27.80;88.90;;;;;;5083928;28;20039;-41
2021/10/10 11:33:58;;;;;;;2.90;1.77;;;28.00;88.80;;;;;;5083439;28;20024;-43
2021/10/10 11:36:46;;;;;;;3.60;2.00;;;28.10;88.50;;;;;;5083771;28;20016;-40
2021/10/10 11:39:20;;;;;;;3.72;1.80;;;28.30;88.10;;;;;;5083964;28;20091;-39
2021/10/10 11:41:54;;;;;;;2.92;1.70;;;28.40;87.70;;;;;;5083733;28;20021;-41
2021/10/10 11:44:33;;;;;;;1.77;1.50;;;28.40;87.60;;;;;;5083978;28;20145;-39
2021/10/10 11:47:02;;;;;;;2.78;1.75;;;28.40;87.80;;;;;;5083736;28;20023;-37
2021/10/10 11:54:48;;;;;;;;;;;28.30;88.50;;;;;;5084215;28;20025;-38
2021/10/10 11:57:15;;;;;;;2.85;1.70;;;28.30;88.80;;;;;;5083652;28;19911;-38
2021/10/10 11:59:57;;;;;;;6.22;2.22;;;28.30;89.00;;;;;;5083887;28;20036;-39
2021/10/10 12:02:25;;;;;;;4.32;1.80;;;28.20;89.30;;;;;;5083539;28;20016;-43
2021/10/10 12:05:11;;;;;;;4.47;2.05;;;28.30;89.40;;;;;;5083809;28;20105;-45
2021/10/10 12:07:41;;;;;;;3.70;2.03;;;28.30;89.50;;;;;;5083688;28;20013;-40
2021/10/10 12:10:11;;;;;;;4.53;1.73;;;28.30;89.40;;;;;;5083809;28;20021;-39
2021/10/10 12:12:38;;;;;;;3.90;1.75;;;28.40;89.40;;;;;;5083386;28;20012;-45
2021/10/10 12:15:06;;;;;;;4.43;1.80;;;28.40;89.40;;;;;;5083314;28;20036;-37
2021/10/10 12:17:38;;;;;;;4.32;1.60;;;28.40;89.20;;;;;;5083428;28;20024;-38
2021/10/10 12:20:17;;;;;;;2.42;1.40;;;28.40;89.20;;;;;;5083642;28;20029;-36
2021/10/10 12:23:02;;;;;;;5.43;1.88;;;28.40;89.20;;;;;;5083594;28;20320;-41
2021/10/10 12:25:37;;;;;;;4.88;1.92;;;28.50;89.20;;;;;;5083601;28;20040;-38
2021/10/10 12:28:18;;;;;;;3.33;1.75;;;28.50;89.10;;;;;;5083207;28;20186;-38
2021/10/10 12:30:59;;;;;;;3.88;2.10;;;28.50;89.10;;;;;;5083586;28;20036;-38
2021/10/10 12:33:34;;;;;;;2.78;1.92;;;28.60;88.90;;;;;;5083274;28;20031;-40
2021/10/10 12:36:04;;;;;;;2.63;1.85;;;28.60;88.80;;;;;;5083106;28;20024;-41
2021/10/10 12:38:41;;;;;;;3.83;1.90;;;28.70;88.90;;;;;;5083071;28;20091;-45
2021/10/10 12:41:22;;;;;;;3.38;1.77;;;28.70;88.70;;;;;;5082982;28;20255;-43
2021/10/10 12:43:55;;;;;;;5.50;1.90;;;28.70;88.60;;;;;;5083227;28;20031;-36
2021/10/10 12:46:24;;;;;;;4.47;1.70;;;28.70;88.50;;;;;;5086258;28;20090;-39
2021/10/10 12:49:05;;;;;;;6.25;1.90;;;28.70;88.40;;;;;;5086788;28;20025;-43
2021/10/10 12:51:33;;;;;;;3.80;1.55;;;28.80;88.30;;;;;;5086628;28;20021;-40
2021/10/10 12:54:22;;;;;;;5.32;1.92;;;28.80;88.30;;;;;;5086789;28;20016;-44
2021/10/10 12:57:02;;;;;;;4.78;1.83;;;28.80;88.20;;;;;;5086291;28;20052;-37
2021/10/10 12:59:28;;;;;;;2.50;1.70;;;28.90;88.20;;;;;;5086408;28;20036;-44
2021/10/10 13:01:55;;;;;;;3.30;1.60;;;28.90;88.20;;;;;;5086554;28;20024;-45
2021/10/10 13:04:22;;;;;;;3.47;1.95;;;28.90;88.00;;;;;;5086573;28;20020;-44